sensor_id;sensor_type;location;lat;lon;timestamp;noise_LAeq;noise_LA_min;noise_LA_max;noise_LA01;noise_LA95
69614;Laerm;57159;52.472;4.750;2023-02-22T00:00:01;33.47;32.52;34.24;;
69614;Laerm;57159;52.472;4.750;2023-02-22T00:00:13;33.47;32.35;34.34;;
69614;Laerm;57159;52.472;4.750;2023-02-22T00:00:32;33.46;32.42;34.58;;
69614;Laerm;57159;52.472;4.750;2023-02-22T00:00:57;33.45;31.97;34.42;;
69614;Laerm;57159;52.472;4.750;2023-02-22T00:01:16;33.47;32.54;34.43;;
69614;Laerm;57159;52.472;4.750;2023-02-22T00:01:45;33.44;32.15;34.31;;
69614;Laerm;57159;52.472;4.750;2023-02-22T00:02:19;33.45;32.39;34.66;;
69614;Laerm;57159;52.472;4.750;2023-02-22T00:02:38;33.46;32.63;34.51;;
69614;Laerm;57159;52.472;4.750;2023-02-22T00:02:51;33.47;32.39;34.39;;
69614;Laerm;57159;52.472;4.750;2023-02-22T00:03:23;33.44;32.65;34.21;;
69614;Laerm;57159;52.472;4.750;2023-02-22T00:03:34;33.43;32.65;34.27;;
69614;Laerm;57159;52.472;4.750;2023-02-22T00:03:49;33.47;32.48;34.21;;
69614;Laerm;57159;52.472;4.750;2023-02-22T00:04:04;33.43;32.45;34.34;;
69614;Laerm;57159;52.472;4.750;2023-02-22T00:04:15;33.47;32.37;34.25;;
69614;Laerm;57159;52.472;4.750;2023-02-22T00:04:31;33.47;32.35;34.36;;
69614;Laerm;57159;52.472;4.750;2023-02-22T00:04:45;33.48;32.40;34.55;;
69614;Laerm;57159;52.472;4.750;2023-02-22T00:04:55;33.45;32.39;34.31;;
69614;Laerm;57159;52.472;4.750;2023-02-22T00:05:05;33.46;32.48;34.64;;
69614;Laerm;57159;52.472;4.750;2023-02-22T00:05:16;33.49;32.46;34.72;;
69614;Laerm;57159;52.472;4.750;2023-02-22T00:05:29;33.45;32.41;34.47;;
69614;Laerm;57159;52.472;4.750;2023-02-22T00:05:43;33.46;32.51;34.24;;
69614;Laerm;57159;52.472;4.750;2023-02-22T00:05:57;33.43;32.42;34.33;;
69614;Laerm;57159;52.472;4.750;2023-02-22T00:06:14;33.47;32.49;34.33;;
69614;Laerm;57159;52.472;4.750;2023-02-22T00:06:24;33.45;32.51;34.44;;
69614;Laerm;57159;52.472;4.750;2023-02-22T00:06:37;33.45;32.61;34.27;;
69614;Laerm;57159;52.472;4.750;2023-02-22T00:06:48;33.48;32.45;34.74;;
69614;Laerm;57159;52.472;4.750;2023-02-22T00:07:01;33.46;32.71;34.41;;
69614;Laerm;57159;52.472;4.750;2023-02-22T00:07:12;33.44;32.39;34.39;;
69614;Laerm;57159;52.472;4.750;2023-02-22T00:07:23;33.45;32.63;34.56;;
69614;Laerm;57159;52.472;4.750;2023-02-22T00:07:34;33.46;32.56;34.56;;
69614;Laerm;57159;52.472;4.750;2023-02-22T00:07:45;33.47;32.45;34.57;;
69614;Laerm;57159;52.472;4.750;2023-02-22T00:07:56;33.45;32.54;34.42;;
69614;Laerm;57159;52.472;4.750;2023-02-22T00:08:07;33.47;32.62;34.42;;
69614;Laerm;57159;52.472;4.750;2023-02-22T00:08:20;33.45;32.56;34.33;;
69614;Laerm;57159;52.472;4.750;2023-02-22T00:08:34;33.45;32.54;34.41;;
69614;Laerm;57159;52.472;4.750;2023-02-22T00:08:46;33.45;32.35;34.50;;
69614;Laerm;57159;52.472;4.750;2023-02-22T00:08:57;33.46;32.07;34.28;;
69614;Laerm;57159;52.472;4.750;2023-02-22T00:09:07;33.48;32.42;34.54;;
69614;Laerm;57159;52.472;4.750;2023-02-22T00:09:20;33.49;32.46;34.41;;
69614;Laerm;57159;52.472;4.750;2023-02-22T00:09:30;33.46;32.57;34.44;;
69614;Laerm;57159;52.472;4.750;2023-02-22T00:09:40;33.49;32.63;34.40;;
69614;Laerm;57159;52.472;4.750;2023-02-22T00:09:51;33.47;32.58;34.27;;
69614;Laerm;57159;52.472;4.750;2023-02-22T00:10:01;33.51;32.64;34.86;;
69614;Laerm;57159;52.472;4.750;2023-02-22T00:10:14;33.49;32.43;34.38;;
69614;Laerm;57159;52.472;4.750;2023-02-22T00:10:29;33.51;32.47;34.38;;
69614;Laerm;57159;52.472;4.750;2023-02-22T00:10:42;33.46;32.45;34.35;;
69614;Laerm;57159;52.472;4.750;2023-02-22T00:10:53;33.53;32.55;34.68;;
69614;Laerm;57159;52.472;4.750;2023-02-22T00:11:05;33.52;32.61;34.52;;
69614;Laerm;57159;52.472;4.750;2023-02-22T00:11:18;33.52;32.57;34.45;;
69614;Laerm;57159;52.472;4.750;2023-02-22T00:11:29;33.51;32.48;34.37;;
69614;Laerm;57159;52.472;4.750;2023-02-22T00:11:44;33.49;32.38;34.32;;
69614;Laerm;57159;52.472;4.750;2023-02-22T00:11:55;33.50;32.63;34.39;;
69614;Laerm;57159;52.472;4.750;2023-02-22T00:12:07;33.53;32.52;34.24;;
69614;Laerm;57159;52.472;4.750;2023-02-22T00:12:19;33.52;32.44;34.29;;
69614;Laerm;57159;52.472;4.750;2023-02-22T00:12:29;33.52;32.57;34.32;;
69614;Laerm;57159;52.472;4.750;2023-02-22T00:12:42;33.53;32.49;34.65;;
69614;Laerm;57159;52.472;4.750;2023-02-22T00:12:53;33.58;32.81;34.35;;
69614;Laerm;57159;52.472;4.750;2023-02-22T00:13:04;33.52;32.56;34.35;;
69614;Laerm;57159;52.472;4.750;2023-02-22T00:13:18;33.50;32.43;34.58;;
69614;Laerm;57159;52.472;4.750;2023-02-22T00:13:37;33.54;32.59;34.78;;
69614;Laerm;57159;52.472;4.750;2023-02-22T00:13:53;33.52;32.46;34.34;;
69614;Laerm;57159;52.472;4.750;2023-02-22T00:14:06;33.48;32.53;34.17;;
69614;Laerm;57159;52.472;4.750;2023-02-22T00:14:16;33.49;32.44;34.42;;
69614;Laerm;57159;52.472;4.750;2023-02-22T00:14:29;33.50;32.48;34.68;;
69614;Laerm;57159;52.472;4.750;2023-02-22T00:14:39;33.47;32.68;34.26;;
69614;Laerm;57159;52.472;4.750;2023-02-22T00:14:51;33.43;32.48;34.33;;
69614;Laerm;57159;52.472;4.750;2023-02-22T00:15:01;33.48;32.40;34.26;;
69614;Laerm;57159;52.472;4.750;2023-02-22T00:15:12;33.42;32.61;34.34;;
69614;Laerm;57159;52.472;4.750;2023-02-22T00:15:23;33.45;32.36;34.50;;
69614;Laerm;57159;52.472;4.750;2023-02-22T00:15:36;33.47;32.45;34.46;;
69614;Laerm;57159;52.472;4.750;2023-02-22T00:15:46;33.42;32.15;34.14;;
69614;Laerm;57159;52.472;4.750;2023-02-22T00:15:57;33.41;32.44;34.41;;
69614;Laerm;57159;52.472;4.750;2023-02-22T00:16:27;33.42;32.16;34.43;;
69614;Laerm;57159;52.472;4.750;2023-02-22T00:16:59;33.43;32.48;34.42;;
69614;Laerm;57159;52.472;4.750;2023-02-22T00:17:28;33.46;32.30;34.61;;
69614;Laerm;57159;52.472;4.750;2023-02-22T00:17:58;33.42;32.17;34.40;;
69614;Laerm;57159;52.472;4.750;2023-02-22T00:18:27;33.44;32.28;35.02;;
69614;Laerm;57159;52.472;4.750;2023-02-22T00:18:56;33.46;32.55;34.36;;
69614;Laerm;57159;52.472;4.750;2023-02-22T00:19:28;33.45;32.32;34.24;;
69614;Laerm;57159;52.472;4.750;2023-02-22T00:19:58;33.50;32.42;34.49;;
69614;Laerm;57159;52.472;4.750;2023-02-22T00:20:27;33.47;32.50;34.47;;
69614;Laerm;57159;52.472;4.750;2023-02-22T00:20:58;33.47;32.45;34.45;;
69614;Laerm;57159;52.472;4.750;2023-02-22T00:21:27;33.50;32.38;34.55;;
69614;Laerm;57159;52.472;4.750;2023-02-22T00:21:58;33.48;32.42;34.45;;
69614;Laerm;57159;52.472;4.750;2023-02-22T00:22:30;33.50;32.32;34.52;;
69614;Laerm;57159;52.472;4.750;2023-02-22T00:22:59;33.49;32.62;34.34;;
69614;Laerm;57159;52.472;4.750;2023-02-22T00:23:29;33.50;32.53;34.37;;
69614;Laerm;57159;52.472;4.750;2023-02-22T00:23:59;33.49;32.43;34.46;;
69614;Laerm;57159;52.472;4.750;2023-02-22T00:24:28;33.50;32.15;34.43;;
69614;Laerm;57159;52.472;4.750;2023-02-22T00:25:00;33.49;32.40;34.39;;
69614;Laerm;57159;52.472;4.750;2023-02-22T00:25:29;33.51;32.51;34.68;;
69614;Laerm;57159;52.472;4.750;2023-02-22T00:25:59;33.53;32.42;34.64;;
69614;Laerm;57159;52.472;4.750;2023-02-22T00:26:28;33.53;32.54;34.59;;
69614;Laerm;57159;52.472;4.750;2023-02-22T00:27:00;33.56;32.71;34.57;;
69614;Laerm;57159;52.472;4.750;2023-02-22T00:27:32;33.53;32.23;34.62;;
69614;Laerm;57159;52.472;4.750;2023-02-22T00:28:01;33.54;32.65;34.62;;
69614;Laerm;57159;52.472;4.750;2023-02-22T00:28:32;33.53;32.01;34.52;;
69614;Laerm;57159;52.472;4.750;2023-02-22T00:29:04;33.54;32.52;34.43;;
69614;Laerm;57159;52.472;4.750;2023-02-22T00:29:33;33.54;32.32;34.66;;
69614;Laerm;57159;52.472;4.750;2023-02-22T00:30:03;33.55;32.61;34.38;;
69614;Laerm;57159;52.472;4.750;2023-02-22T00:30:33;33.53;32.60;34.68;;
69614;Laerm;57159;52.472;4.750;2023-02-22T00:31:05;33.56;32.67;34.63;;
69614;Laerm;57159;52.472;4.750;2023-02-22T00:31:37;33.57;32.50;34.71;;
69614;Laerm;57159;52.472;4.750;2023-02-22T00:32:06;33.57;32.57;34.51;;
69614;Laerm;57159;52.472;4.750;2023-02-22T00:32:35;33.59;32.61;34.61;;
69614;Laerm;57159;52.472;4.750;2023-02-22T00:33:04;33.58;32.46;34.75;;
69614;Laerm;57159;52.472;4.750;2023-02-22T00:33:33;33.60;32.21;34.57;;
69614;Laerm;57159;52.472;4.750;2023-02-22T00:34:04;33.61;32.48;34.73;;
69614;Laerm;57159;52.472;4.750;2023-02-22T00:34:36;33.58;32.28;35.10;;
69614;Laerm;57159;52.472;4.750;2023-02-22T00:35:05;33.59;32.50;34.76;;
69614;Laerm;57159;52.472;4.750;2023-02-22T00:35:35;33.60;32.53;34.60;;
69614;Laerm;57159;52.472;4.750;2023-02-22T00:36:05;33.61;32.55;34.63;;
69614;Laerm;57159;52.472;4.750;2023-02-22T00:36:33;33.57;32.54;34.56;;
69614;Laerm;57159;52.472;4.750;2023-02-22T00:37:02;33.61;32.47;34.53;;
69614;Laerm;57159;52.472;4.750;2023-02-22T00:37:31;33.63;32.55;34.50;;
69614;Laerm;57159;52.472;4.750;2023-02-22T00:38:01;33.65;32.51;34.63;;
69614;Laerm;57159;52.472;4.750;2023-02-22T00:38:31;33.66;32.60;34.80;;
69614;Laerm;57159;52.472;4.750;2023-02-22T00:38:59;33.61;32.56;34.51;;
69614;Laerm;57159;52.472;4.750;2023-02-22T00:39:29;33.65;32.45;34.81;;
69614;Laerm;57159;52.472;4.750;2023-02-22T00:39:58;33.63;32.26;34.58;;
69614;Laerm;57159;52.472;4.750;2023-02-22T00:40:28;33.67;32.67;34.65;;
69614;Laerm;57159;52.472;4.750;2023-02-22T00:40:58;33.67;32.76;34.56;;
69614;Laerm;57159;52.472;4.750;2023-02-22T00:41:27;33.63;32.49;34.55;;
69614;Laerm;57159;52.472;4.750;2023-02-22T00:41:56;33.67;32.55;34.53;;
69614;Laerm;57159;52.472;4.750;2023-02-22T00:42:25;33.67;32.61;34.72;;
69614;Laerm;57159;52.472;4.750;2023-02-22T00:42:54;33.66;32.68;34.91;;
69614;Laerm;57159;52.472;4.750;2023-02-22T00:43:23;33.67;32.70;37.42;;
69614;Laerm;57159;52.472;4.750;2023-02-22T00:43:52;33.68;32.45;35.32;;
69614;Laerm;57159;52.472;4.750;2023-02-22T00:44:24;33.67;32.69;34.83;;
69614;Laerm;57159;52.472;4.750;2023-02-22T00:44:53;33.64;32.68;34.66;;
69614;Laerm;57159;52.472;4.750;2023-02-22T00:45:23;33.68;32.64;35.07;;
69614;Laerm;57159;52.472;4.750;2023-02-22T00:45:52;33.69;32.51;35.58;;
69614;Laerm;57159;52.472;4.750;2023-02-22T00:46:21;33.63;32.68;34.82;;
69614;Laerm;57159;52.472;4.750;2023-02-22T00:46:50;33.63;32.22;34.53;;
69614;Laerm;57159;52.472;4.750;2023-02-22T00:47:19;33.63;32.58;34.63;;
69614;Laerm;57159;52.472;4.750;2023-02-22T00:47:48;33.62;32.46;34.65;;
69614;Laerm;57159;52.472;4.750;2023-02-22T00:48:17;33.63;32.52;34.51;;
69614;Laerm;57159;52.472;4.750;2023-02-22T00:48:46;33.64;32.48;34.76;;
69614;Laerm;57159;52.472;4.750;2023-02-22T00:49:15;33.62;32.39;34.71;;
69614;Laerm;57159;52.472;4.750;2023-02-22T00:49:44;33.64;32.58;34.77;;
69614;Laerm;57159;52.472;4.750;2023-02-22T00:50:14;33.62;32.49;34.72;;
69614;Laerm;57159;52.472;4.750;2023-02-22T00:50:43;33.63;32.63;34.80;;
69614;Laerm;57159;52.472;4.750;2023-02-22T00:50:54;33.61;32.58;34.82;;
69614;Laerm;57159;52.472;4.750;2023-02-22T00:51:05;33.61;32.73;34.70;;
69614;Laerm;57159;52.472;4.750;2023-02-22T00:51:15;33.68;32.55;34.46;;
69614;Laerm;57159;52.472;4.750;2023-02-22T00:51:26;33.63;32.60;34.54;;
69614;Laerm;57159;52.472;4.750;2023-02-22T00:51:37;33.62;32.67;34.68;;
69614;Laerm;57159;52.472;4.750;2023-02-22T00:51:48;33.59;32.65;34.46;;
69614;Laerm;57159;52.472;4.750;2023-02-22T00:51:58;33.60;32.73;34.45;;
69614;Laerm;57159;52.472;4.750;2023-02-22T00:52:09;33.67;32.82;34.61;;
69614;Laerm;57159;52.472;4.750;2023-02-22T00:52:19;33.62;32.85;34.61;;
69614;Laerm;57159;52.472;4.750;2023-02-22T00:52:30;33.64;32.74;35.27;;
69614;Laerm;57159;52.472;4.750;2023-02-22T00:52:41;33.64;32.73;34.52;;
69614;Laerm;57159;52.472;4.750;2023-02-22T00:52:52;33.66;32.82;34.63;;
69614;Laerm;57159;52.472;4.750;2023-02-22T00:53:03;33.62;32.58;34.42;;
69614;Laerm;57159;52.472;4.750;2023-02-22T00:53:14;33.68;32.45;34.80;;
69614;Laerm;57159;52.472;4.750;2023-02-22T00:53:25;33.62;32.53;34.85;;
69614;Laerm;57159;52.472;4.750;2023-02-22T00:53:36;33.59;32.45;34.82;;
69614;Laerm;57159;52.472;4.750;2023-02-22T00:53:46;33.59;32.83;34.57;;
69614;Laerm;57159;52.472;4.750;2023-02-22T00:53:57;33.61;32.60;34.36;;
69614;Laerm;57159;52.472;4.750;2023-02-22T00:54:07;33.64;32.66;34.45;;
69614;Laerm;57159;52.472;4.750;2023-02-22T00:54:18;33.59;32.75;34.47;;
69614;Laerm;57159;52.472;4.750;2023-02-22T00:54:29;33.61;32.57;34.61;;
69614;Laerm;57159;52.472;4.750;2023-02-22T00:54:39;33.64;32.78;34.69;;
69614;Laerm;57159;52.472;4.750;2023-02-22T00:54:50;33.62;32.61;34.48;;
69614;Laerm;57159;52.472;4.750;2023-02-22T00:55:00;33.62;32.45;34.40;;
69614;Laerm;57159;52.472;4.750;2023-02-22T00:55:15;33.62;32.70;34.74;;
69614;Laerm;57159;52.472;4.750;2023-02-22T00:55:27;33.61;32.54;34.76;;
69614;Laerm;57159;52.472;4.750;2023-02-22T00:55:38;33.59;32.79;34.50;;
69614;Laerm;57159;52.472;4.750;2023-02-22T00:55:48;33.59;32.73;34.44;;
69614;Laerm;57159;52.472;4.750;2023-02-22T00:55:58;33.60;32.65;34.46;;
69614;Laerm;57159;52.472;4.750;2023-02-22T00:56:14;33.57;32.47;34.54;;
69614;Laerm;57159;52.472;4.750;2023-02-22T00:56:25;33.60;32.57;34.47;;
69614;Laerm;57159;52.472;4.750;2023-02-22T00:56:35;33.60;32.67;34.74;;
69614;Laerm;57159;52.472;4.750;2023-02-22T00:56:46;33.60;32.81;34.48;;
69614;Laerm;57159;52.472;4.750;2023-02-22T00:56:59;33.64;32.63;34.77;;
69614;Laerm;57159;52.472;4.750;2023-02-22T00:57:10;33.57;32.56;34.34;;
69614;Laerm;57159;52.472;4.750;2023-02-22T00:57:21;33.62;32.63;34.47;;
69614;Laerm;57159;52.472;4.750;2023-02-22T00:57:31;33.64;32.51;34.75;;
69614;Laerm;57159;52.472;4.750;2023-02-22T00:57:44;33.58;32.73;34.41;;
69614;Laerm;57159;52.472;4.750;2023-02-22T00:57:55;33.56;32.76;34.48;;
69614;Laerm;57159;52.472;4.750;2023-02-22T00:58:06;33.58;32.64;34.57;;
69614;Laerm;57159;52.472;4.750;2023-02-22T00:58:16;33.55;32.54;34.41;;
69614;Laerm;57159;52.472;4.750;2023-02-22T00:58:27;33.58;32.77;34.73;;
69614;Laerm;57159;52.472;4.750;2023-02-22T00:58:41;33.56;32.63;34.50;;
69614;Laerm;57159;52.472;4.750;2023-02-22T00:58:51;33.55;32.68;34.37;;
69614;Laerm;57159;52.472;4.750;2023-02-22T00:59:02;33.57;32.53;34.77;;
69614;Laerm;57159;52.472;4.750;2023-02-22T00:59:12;33.62;32.73;34.55;;
69614;Laerm;57159;52.472;4.750;2023-02-22T00:59:23;33.58;32.40;34.48;;
69614;Laerm;57159;52.472;4.750;2023-02-22T00:59:33;33.57;32.53;34.40;;
69614;Laerm;57159;52.472;4.750;2023-02-22T00:59:43;33.57;32.62;34.43;;
69614;Laerm;57159;52.472;4.750;2023-02-22T00:59:54;33.58;32.70;34.44;;
69614;Laerm;57159;52.472;4.750;2023-02-22T01:00:05;33.54;32.47;34.37;;
69614;Laerm;57159;52.472;4.750;2023-02-22T01:00:23;33.58;32.65;34.45;;
69614;Laerm;57159;52.472;4.750;2023-02-22T01:00:39;33.59;32.66;34.47;;
69614;Laerm;57159;52.472;4.750;2023-02-22T01:00:50;33.59;32.41;34.53;;
69614;Laerm;57159;52.472;4.750;2023-02-22T01:01:04;33.61;32.77;34.50;;
69614;Laerm;57159;52.472;4.750;2023-02-22T01:01:14;33.58;32.74;34.46;;
69614;Laerm;57159;52.472;4.750;2023-02-22T01:01:24;33.57;32.69;34.45;;
69614;Laerm;57159;52.472;4.750;2023-02-22T01:01:34;33.59;32.62;34.53;;
69614;Laerm;57159;52.472;4.750;2023-02-22T01:01:45;33.57;32.62;34.56;;
69614;Laerm;57159;52.472;4.750;2023-02-22T01:01:55;33.60;32.77;34.55;;
69614;Laerm;57159;52.472;4.750;2023-02-22T01:02:05;33.60;32.59;34.39;;
69614;Laerm;57159;52.472;4.750;2023-02-22T01:02:16;33.59;32.51;34.53;;
69614;Laerm;57159;52.472;4.750;2023-02-22T01:02:26;33.56;32.60;34.42;;
69614;Laerm;57159;52.472;4.750;2023-02-22T01:02:40;33.56;32.68;34.57;;
69614;Laerm;57159;52.472;4.750;2023-02-22T01:02:51;33.59;32.39;34.62;;
69614;Laerm;57159;52.472;4.750;2023-02-22T01:03:02;33.63;32.66;34.54;;
69614;Laerm;57159;52.472;4.750;2023-02-22T01:03:15;33.60;32.37;34.94;;
69614;Laerm;57159;52.472;4.750;2023-02-22T01:03:25;33.59;32.64;34.40;;
69614;Laerm;57159;52.472;4.750;2023-02-22T01:03:35;33.61;32.66;34.34;;
69614;Laerm;57159;52.472;4.750;2023-02-22T01:03:50;33.63;32.56;34.82;;
69614;Laerm;57159;52.472;4.750;2023-02-22T01:04:00;33.61;32.82;34.38;;
69614;Laerm;57159;52.472;4.750;2023-02-22T01:04:11;33.59;32.75;34.57;;
69614;Laerm;57159;52.472;4.750;2023-02-22T01:04:21;33.61;32.72;34.28;;
69614;Laerm;57159;52.472;4.750;2023-02-22T01:04:32;33.61;32.73;34.62;;
69614;Laerm;57159;52.472;4.750;2023-02-22T01:04:43;33.58;32.63;34.57;;
69614;Laerm;57159;52.472;4.750;2023-02-22T01:04:53;33.63;32.80;34.46;;
69614;Laerm;57159;52.472;4.750;2023-02-22T01:05:07;33.64;32.65;34.63;;
69614;Laerm;57159;52.472;4.750;2023-02-22T01:05:19;33.66;32.69;34.89;;
69614;Laerm;57159;52.472;4.750;2023-02-22T01:05:30;33.61;32.71;34.63;;
69614;Laerm;57159;52.472;4.750;2023-02-22T01:05:42;33.66;32.54;34.56;;
69614;Laerm;57159;52.472;4.750;2023-02-22T01:05:52;33.62;32.75;34.57;;
69614;Laerm;57159;52.472;4.750;2023-02-22T01:06:03;33.61;32.64;34.37;;
69614;Laerm;57159;52.472;4.750;2023-02-22T01:06:17;33.63;32.64;34.61;;
69614;Laerm;57159;52.472;4.750;2023-02-22T01:06:30;33.68;32.40;34.62;;
69614;Laerm;57159;52.472;4.750;2023-02-22T01:06:40;33.69;32.63;34.53;;
69614;Laerm;57159;52.472;4.750;2023-02-22T01:06:51;33.66;32.75;34.59;;
69614;Laerm;57159;52.472;4.750;2023-02-22T01:07:05;33.64;32.74;34.54;;
69614;Laerm;57159;52.472;4.750;2023-02-22T01:07:16;33.66;32.69;34.54;;
69614;Laerm;57159;52.472;4.750;2023-02-22T01:07:26;33.67;32.82;34.62;;
69614;Laerm;57159;52.472;4.750;2023-02-22T01:07:37;33.62;32.36;34.40;;
69614;Laerm;57159;52.472;4.750;2023-02-22T01:07:47;33.68;32.77;34.57;;
69614;Laerm;57159;52.472;4.750;2023-02-22T01:07:58;33.65;32.70;34.71;;
69614;Laerm;57159;52.472;4.750;2023-02-22T01:08:10;33.64;32.79;34.42;;
69614;Laerm;57159;52.472;4.750;2023-02-22T01:08:21;33.64;32.55;34.38;;
69614;Laerm;57159;52.472;4.750;2023-02-22T01:08:34;33.62;32.58;34.41;;
69614;Laerm;57159;52.472;4.750;2023-02-22T01:08:44;33.62;32.79;34.83;;
69614;Laerm;57159;52.472;4.750;2023-02-22T01:08:55;33.63;32.74;34.52;;
69614;Laerm;57159;52.472;4.750;2023-02-22T01:09:05;33.66;32.71;34.75;;
69614;Laerm;57159;52.472;4.750;2023-02-22T01:09:17;33.66;32.62;34.52;;
69614;Laerm;57159;52.472;4.750;2023-02-22T01:09:27;33.64;32.67;34.58;;
69614;Laerm;57159;52.472;4.750;2023-02-22T01:09:37;33.63;32.46;34.50;;
69614;Laerm;57159;52.472;4.750;2023-02-22T01:09:48;33.67;32.62;34.60;;
69614;Laerm;57159;52.472;4.750;2023-02-22T01:09:59;33.64;32.66;34.42;;
69614;Laerm;57159;52.472;4.750;2023-02-22T01:10:11;33.65;32.53;34.53;;
69614;Laerm;57159;52.472;4.750;2023-02-22T01:10:22;33.65;32.65;34.48;;
69614;Laerm;57159;52.472;4.750;2023-02-22T01:10:34;33.63;32.73;34.63;;
69614;Laerm;57159;52.472;4.750;2023-02-22T01:10:46;33.70;32.82;34.66;;
69614;Laerm;57159;52.472;4.750;2023-02-22T01:10:56;33.66;32.74;34.75;;
69614;Laerm;57159;52.472;4.750;2023-02-22T01:11:09;33.63;32.49;34.83;;
69614;Laerm;57159;52.472;4.750;2023-02-22T01:11:20;33.68;32.89;34.49;;
69614;Laerm;57159;52.472;4.750;2023-02-22T01:11:31;33.65;32.76;34.69;;
69614;Laerm;57159;52.472;4.750;2023-02-22T01:11:41;33.67;32.60;34.63;;
69614;Laerm;57159;52.472;4.750;2023-02-22T01:11:52;33.66;32.78;34.68;;
69614;Laerm;57159;52.472;4.750;2023-02-22T01:12:04;33.68;32.76;34.72;;
69614;Laerm;57159;52.472;4.750;2023-02-22T01:12:14;33.67;32.85;34.62;;
69614;Laerm;57159;52.472;4.750;2023-02-22T01:12:25;33.67;32.90;34.55;;
69614;Laerm;57159;52.472;4.750;2023-02-22T01:12:36;33.67;32.81;34.70;;
69614;Laerm;57159;52.472;4.750;2023-02-22T01:12:47;33.68;32.66;34.51;;
69614;Laerm;57159;52.472;4.750;2023-02-22T01:12:59;33.70;32.63;34.62;;
69614;Laerm;57159;52.472;4.750;2023-02-22T01:13:09;33.71;32.66;34.45;;
69614;Laerm;57159;52.472;4.750;2023-02-22T01:13:23;33.68;32.82;34.63;;
69614;Laerm;57159;52.472;4.750;2023-02-22T01:13:34;33.65;32.63;34.54;;
69614;Laerm;57159;52.472;4.750;2023-02-22T01:13:44;33.68;32.83;34.59;;
69614;Laerm;57159;52.472;4.750;2023-02-22T01:13:55;33.73;32.60;34.76;;
69614;Laerm;57159;52.472;4.750;2023-02-22T01:14:06;33.75;32.56;34.66;;
69614;Laerm;57159;52.472;4.750;2023-02-22T01:14:18;33.68;32.62;34.94;;
69614;Laerm;57159;52.472;4.750;2023-02-22T01:14:32;33.67;32.66;34.86;;
69614;Laerm;57159;52.472;4.750;2023-02-22T01:14:43;33.68;32.74;34.59;;
69614;Laerm;57159;52.472;4.750;2023-02-22T01:14:55;33.66;32.74;34.68;;
69614;Laerm;57159;52.472;4.750;2023-02-22T01:15:09;33.67;32.55;34.60;;
69614;Laerm;57159;52.472;4.750;2023-02-22T01:15:21;33.67;32.75;35.07;;
69614;Laerm;57159;52.472;4.750;2023-02-22T01:15:32;33.68;32.56;34.84;;
69614;Laerm;57159;52.472;4.750;2023-02-22T01:15:43;33.69;32.60;34.63;;
69614;Laerm;57159;52.472;4.750;2023-02-22T01:15:54;33.67;32.80;34.58;;
69614;Laerm;57159;52.472;4.750;2023-02-22T01:16:05;33.67;32.53;34.49;;
69614;Laerm;57159;52.472;4.750;2023-02-22T01:16:17;33.70;32.80;34.81;;
69614;Laerm;57159;52.472;4.750;2023-02-22T01:16:27;33.73;32.91;34.57;;
69614;Laerm;57159;52.472;4.750;2023-02-22T01:16:37;33.68;32.84;34.67;;
69614;Laerm;57159;52.472;4.750;2023-02-22T01:16:48;33.68;32.71;34.45;;
69614;Laerm;57159;52.472;4.750;2023-02-22T01:16:59;33.69;32.89;34.71;;
69614;Laerm;57159;52.472;4.750;2023-02-22T01:17:09;33.67;32.82;34.85;;
69614;Laerm;57159;52.472;4.750;2023-02-22T01:17:20;33.72;32.78;34.65;;
69614;Laerm;57159;52.472;4.750;2023-02-22T01:17:30;33.77;32.85;34.61;;
69614;Laerm;57159;52.472;4.750;2023-02-22T01:17:41;33.70;32.83;34.81;;
69614;Laerm;57159;52.472;4.750;2023-02-22T01:17:52;33.71;32.89;35.09;;
69614;Laerm;57159;52.472;4.750;2023-02-22T01:18:03;33.68;32.70;34.56;;
69614;Laerm;57159;52.472;4.750;2023-02-22T01:18:14;33.70;32.87;34.91;;
69614;Laerm;57159;52.472;4.750;2023-02-22T01:18:26;33.70;32.90;34.55;;
69614;Laerm;57159;52.472;4.750;2023-02-22T01:18:36;33.68;32.77;34.59;;
69614;Laerm;57159;52.472;4.750;2023-02-22T01:18:47;33.76;32.90;35.16;;
69614;Laerm;57159;52.472;4.750;2023-02-22T01:18:57;33.73;32.62;34.91;;
69614;Laerm;57159;52.472;4.750;2023-02-22T01:19:10;33.74;32.61;34.58;;
69614;Laerm;57159;52.472;4.750;2023-02-22T01:19:21;33.68;32.67;34.47;;
69614;Laerm;57159;52.472;4.750;2023-02-22T01:19:32;33.70;32.75;34.66;;
69614;Laerm;57159;52.472;4.750;2023-02-22T01:19:42;33.65;32.85;34.55;;
69614;Laerm;57159;52.472;4.750;2023-02-22T01:19:52;33.69;32.71;34.75;;
69614;Laerm;57159;52.472;4.750;2023-02-22T01:20:04;33.73;32.83;34.76;;
69614;Laerm;57159;52.472;4.750;2023-02-22T01:20:20;33.71;32.65;34.75;;
69614;Laerm;57159;52.472;4.750;2023-02-22T01:20:35;33.72;32.72;34.89;;
69614;Laerm;57159;52.472;4.750;2023-02-22T01:20:46;33.75;32.74;34.64;;
69614;Laerm;57159;52.472;4.750;2023-02-22T01:20:57;33.76;32.87;34.72;;
69614;Laerm;57159;52.472;4.750;2023-02-22T01:21:07;33.74;32.60;34.64;;
69614;Laerm;57159;52.472;4.750;2023-02-22T01:21:18;33.66;32.88;34.56;;
69614;Laerm;57159;52.472;4.750;2023-02-22T01:21:28;33.70;32.62;34.68;;
69614;Laerm;57159;52.472;4.750;2023-02-22T01:21:39;33.74;32.86;35.30;;
69614;Laerm;57159;52.472;4.750;2023-02-22T01:21:52;33.73;32.57;35.29;;
69614;Laerm;57159;52.472;4.750;2023-02-22T01:22:03;33.70;32.84;34.77;;
69614;Laerm;57159;52.472;4.750;2023-02-22T01:22:14;33.69;32.78;34.56;;
69614;Laerm;57159;52.472;4.750;2023-02-22T01:22:25;33.71;32.69;34.72;;
69614;Laerm;57159;52.472;4.750;2023-02-22T01:22:38;33.72;32.80;34.83;;
69614;Laerm;57159;52.472;4.750;2023-02-22T01:22:49;33.68;32.50;34.54;;
69614;Laerm;57159;52.472;4.750;2023-02-22T01:23:02;33.79;32.71;35.00;;
69614;Laerm;57159;52.472;4.750;2023-02-22T01:23:16;33.78;32.87;34.98;;
69614;Laerm;57159;52.472;4.750;2023-02-22T01:23:27;33.76;32.57;34.76;;
69614;Laerm;57159;52.472;4.750;2023-02-22T01:23:37;33.72;32.77;34.73;;
69614;Laerm;57159;52.472;4.750;2023-02-22T01:23:47;33.73;32.64;34.45;;
69614;Laerm;57159;52.472;4.750;2023-02-22T01:23:57;33.75;32.87;35.07;;
69614;Laerm;57159;52.472;4.750;2023-02-22T01:24:08;33.80;32.89;34.99;;
69614;Laerm;57159;52.472;4.750;2023-02-22T01:24:18;33.73;32.81;34.63;;
69614;Laerm;57159;52.472;4.750;2023-02-22T01:24:28;33.73;32.64;34.73;;
69614;Laerm;57159;52.472;4.750;2023-02-22T01:24:39;33.70;32.46;34.68;;
69614;Laerm;57159;52.472;4.750;2023-02-22T01:24:49;33.73;32.82;35.31;;
69614;Laerm;57159;52.472;4.750;2023-02-22T01:25:00;33.70;32.87;34.61;;
69614;Laerm;57159;52.472;4.750;2023-02-22T01:25:14;33.71;32.78;34.75;;
69614;Laerm;57159;52.472;4.750;2023-02-22T01:25:26;33.68;32.69;35.36;;
69614;Laerm;57159;52.472;4.750;2023-02-22T01:25:37;33.68;32.69;35.08;;
69614;Laerm;57159;52.472;4.750;2023-02-22T01:25:47;33.67;32.81;34.49;;
69614;Laerm;57159;52.472;4.750;2023-02-22T01:25:57;33.69;32.56;34.52;;
69614;Laerm;57159;52.472;4.750;2023-02-22T01:26:08;33.65;32.57;34.66;;
69614;Laerm;57159;52.472;4.750;2023-02-22T01:26:18;33.64;32.81;34.54;;
69614;Laerm;57159;52.472;4.750;2023-02-22T01:26:28;33.66;32.77;34.53;;
69614;Laerm;57159;52.472;4.750;2023-02-22T01:26:39;33.64;32.66;34.63;;
69614;Laerm;57159;52.472;4.750;2023-02-22T01:26:52;33.66;32.70;34.48;;
69614;Laerm;57159;52.472;4.750;2023-02-22T01:27:05;33.68;32.80;34.51;;